sim
Sign-in with your pilot id or email,
or register
Callsign
Passwort

Schedule Details

Flight Number: DLH2236 (2)
Departure: Munich Airport (EDDM) at 18:25
Arrival: Paris Charles de Gaulle Airport (LFPG) at 20:00
Route: Lufthansa Passenger Schedule. Enter filed route here before submitting Pirep.

Weather Information
Getting current METAR information for EDDM 250720Z 28017G27KT 4500 SHRA FEW008 SCT020CB BKN040 11/09 Q1001 BECMG 25010KT 7000 NSW
Getting current METAR information for LFPG 250700Z 25014KT 9999 BKN022 10/08 Q0998 TEMPO 21015G25KT 4000 SHRA BKN020TCU

Schedule Frequency

Route Map